Aérodrome :
LOGIN :

S'inscrire | Disclaimer

   EN    FR    IT 

 










Légende :    VFR   VFR Marginal   IFR   IFR Intensif   IFR Très Intensif
Visi : 
Plafond : 
>= 8 km
>= 3000ft
5 à 8 km
1000 à 3000 ft
1500m à 5 km
500 à 1000 ft
800 à 1500m
200 à 500 ft
< 800m
< 200 ft
Symboles :   Orages  Brouillard  Fortes neiges  Fortes précipitations  Vent > 20 kt
SIGMETs :   Divers  Orages  Givrage  Turbulence  Onde Orograph.  Cendres Volcan.






- Altitude de l'aérodrome : 992 ft


LIRV - Roma Viterbo Air Force Base (military)

DERNIER METAR :
  • 020855Z 18010KT 9999 SCT022 10/07 Q1008 RMK BKN BKN080 MON E SE CLD CIME NC VIS MIN 9999 WIND THR04 ///// KT BLU

METARs EXPIRÉS :
  • 020755Z 17009KT 9999 BKN022 09/06 Q1007 RMK BKN MON E SE CLD CIME ABB SLW VIS MIN 9999 WIND THR04 ///// KT WHT
  • 020655Z 15010KT 9999 SCT025 08/05 Q1007

TAF TAF LIRV
Valide du 02 à 09h jusqu'au 02 à 18h UTC


020800Z 0209/0218 16012KT 9999 SCT020 SCT030
TEMPO 0209/0218 5000 RA BR FEW015TCU BKN020
TEMPO 0216/0218 03005KT



MET'MAP, la Météo Aéronautique d'un coup d'oeil ! - Copyright ORBIFLY Décembre 2007 - Disclaimer

ORBIFLY MET'MAP TEAM :

Programmation & Développement : Alexandra Zaïnal
Sur une idée originale de : Baudouin d'Aumeries
Assistance à la programmation : Marc-Olivier Méhu
Soutien technique & logistique : Manuel Goepfert

Contact : metmap@orbifly.com




SOURCES & CREDITS :

   NOAA